Time;durP1;ratioP1;P1;durP2;ratioP2;P2;SDS_P1;SDS_P2;PMS_P1;PMS_P2;Temp;Humidity;BMP_temperature;BMP_pressure;BME280_temperature;BME280_humidity;BME280_pressure;Samples;Min_cycle;Max_cycle;Signal;HPM_P1;HPM_P2
2021/03/28 10:00:51;;;;;;;8.30;3.00;;;12.90;70.70;;;;;;5065684;23;20054;-64
2021/03/28 10:03:31;;;;;;;14.38;4.13;;;13.00;70.60;;;;;;5010320;28;20531;-67
2021/03/28 10:06:16;;;;;;;14.35;3.67;;;13.00;70.00;;;;;;4996318;28;20109;-63
2021/03/28 10:08:50;;;;;;;10.52;3.08;;;13.20;70.10;;;;;;4994421;28;20034;-64
2021/03/28 10:11:23;;;;;;;7.15;2.58;;;13.20;70.20;;;;;;4999380;28;20504;-63
2021/03/28 10:14:00;;;;;;;14.23;3.00;;;13.30;68.60;;;;;;5001666;28;20121;-62
2021/03/28 10:17:08;;;;;;;8.55;2.70;;;13.40;69.10;;;;;;5015055;28;20022;-62
2021/03/28 10:19:39;;;;;;;9.02;2.90;;;13.60;68.00;;;;;;5001970;28;20494;-64
2021/03/28 10:22:48;;;;;;;10.63;2.87;;;13.70;65.20;;;;;;5011708;28;20034;-63
2021/03/28 10:25:26;;;;;;;9.30;2.50;;;13.90;64.00;;;;;;5014568;28;20026;-63
2021/03/28 10:28:21;;;;;;;9.40;2.72;;;14.00;63.40;;;;;;5009551;28;20029;-63
2021/03/28 10:30:57;;;;;;;9.85;2.80;;;14.10;63.30;;;;;;4994617;28;20482;-67
2021/03/28 10:33:41;;;;;;;9.05;3.00;;;14.20;62.80;;;;;;4993774;28;20486;-63
2021/03/28 10:36:41;;;;;;;6.97;2.58;;;14.30;62.40;;;;;;4995150;28;20030;-63
2021/03/28 10:39:40;;;;;;;9.98;2.75;;;14.40;62.60;;;;;;5003177;28;20033;-62
2021/03/28 10:42:43;;;;;;;9.82;2.85;;;14.50;62.10;;;;;;5008066;28;20076;-62
2021/03/28 10:45:25;;;;;;;8.40;2.65;;;14.50;58.30;;;;;;5006196;28;20072;-64
2021/03/28 10:48:12;;;;;;;8.23;2.65;;;14.40;58.00;;;;;;4997273;28;20063;-62
2021/03/28 10:51:05;;;;;;;8.15;2.55;;;14.30;58.20;;;;;;4992693;28;20022;-62
2021/03/28 10:53:54;;;;;;;7.55;2.70;;;14.10;58.70;;;;;;4994646;28;20026;-63
2021/03/28 10:56:35;;;;;;;10.43;3.03;;;14.00;59.50;;;;;;4994129;28;20030;-63
2021/03/28 10:59:44;;;;;;;6.25;2.80;;;14.00;59.70;;;;;;4994058;28;20374;-62
2021/03/28 11:02:46;;;;;;;6.70;2.40;;;13.90;61.30;;;;;;4994218;28;20069;-62
2021/03/28 11:05:18;;;;;;;11.00;2.83;;;14.00;61.60;;;;;;4993023;28;20034;-63
2021/03/28 11:07:55;;;;;;;13.55;2.90;;;14.10;61.50;;;;;;4994266;28;20053;-62
2021/03/28 11:10:23;;;;;;;8.40;3.33;;;14.10;61.50;;;;;;4993801;28;20042;-62
2021/03/28 11:13:12;;;;;;;7.05;3.20;;;14.10;62.20;;;;;;4994189;28;20136;-62
2021/03/28 11:16:05;;;;;;;8.85;2.78;;;14.10;63.40;;;;;;4994309;28;20109;-63
2021/03/28 11:18:42;;;;;;;7.93;2.72;;;14.10;63.70;;;;;;4993692;28;20027;-63
2021/03/28 11:21:30;;;;;;;7.35;2.72;;;14.10;63.10;;;;;;4993754;28;20027;-61
2021/03/28 11:24:16;;;;;;;9.32;2.58;;;14.00;64.20;;;;;;4992192;28;20553;-63
2021/03/28 11:27:03;;;;;;;7.82;2.70;;;14.00;64.60;;;;;;4993982;28;20475;-63
2021/03/28 11:30:00;;;;;;;6.25;2.40;;;14.00;64.50;;;;;;4994203;28;20026;-64
2021/03/28 11:32:54;;;;;;;7.78;2.70;;;13.90;63.80;;;;;;4993361;28;20026;-63
2021/03/28 11:35:40;;;;;;;6.93;3.08;;;13.80;65.20;;;;;;4983907;28;20065;-63
2021/03/28 11:38:17;;;;;;;6.28;2.30;;;13.60;66.90;;;;;;4992919;28;20073;-63
2021/03/28 11:40:52;;;;;;;5.60;2.17;;;13.40;67.30;;;;;;4993842;28;20029;-62
2021/03/28 11:43:31;;;;;;;8.57;2.40;;;13.20;68.10;;;;;;4994080;28;20061;-65
2021/03/28 11:46:09;;;;;;;8.70;2.35;;;13.00;69.20;;;;;;4992922;28;20022;-63
2021/03/28 11:48:41;;;;;;;11.57;2.72;;;13.00;70.30;;;;;;4993605;28;20062;-62
2021/03/28 11:51:20;;;;;;;5.20;2.15;;;13.00;71.10;;;;;;4991853;28;20066;-62
2021/03/28 11:54:08;;;;;;;7.53;2.35;;;12.90;71.30;;;;;;4991516;28;20046;-63
2021/03/28 11:56:49;;;;;;;12.85;3.53;;;12.90;71.70;;;;;;4992319;28;20034;-62
2021/03/28 11:59:18;;;;;;;8.88;2.78;;;13.00;72.80;;;;;;4992989;28;20050;-63
2021/03/28 12:01:56;;;;;;;7.82;2.88;;;13.00;72.00;;;;;;4992186;28;20034;-65
2021/03/28 12:04:40;;;;;;;7.97;2.63;;;13.10;71.30;;;;;;4993618;28;20080;-65
2021/03/28 12:07:25;;;;;;;7.85;2.45;;;13.10;70.70;;;;;;4992277;28;20034;-63
2021/03/28 12:09:59;;;;;;;7.88;2.80;;;13.20;70.40;;;;;;4992990;28;20359;-64
2021/03/28 12:12:36;;;;;;;10.73;2.53;;;13.30;69.70;;;;;;4993285;28;20022;-64
2021/03/28 12:15:39;;;;;;;7.50;2.33;;;13.30;69.40;;;;;;4992106;28;20045;-63
2021/03/28 12:18:29;;;;;;;8.27;2.70;;;13.30;69.00;;;;;;4993001;28;20050;-63
2021/03/28 12:21:02;;;;;;;12.85;3.40;;;13.40;68.50;;;;;;4992298;28;20356;-64
2021/03/28 12:23:42;;;;;;;7.75;3.10;;;13.30;68.40;;;;;;4993409;28;20026;-64
2021/03/28 12:26:13;;;;;;;10.73;3.35;;;13.20;68.10;;;;;;4993165;28;20026;-64
2021/03/28 12:28:45;;;;;;;7.50;2.63;;;13.10;68.40;;;;;;4992722;28;20090;-66
2021/03/28 12:31:27;;;;;;;;;;;13.00;68.80;;;;;;4993460;28;20493;-62
2021/03/28 12:34:32;;;;;;;13.48;3.08;;;13.00;69.00;;;;;;4992222;28;19945;-62
2021/03/28 12:37:03;;;;;;;8.68;3.00;;;13.00;69.20;;;;;;4992856;28;20026;-64
2021/03/28 12:40:03;;;;;;;12.65;3.70;;;12.90;69.10;;;;;;4993142;28;20470;-64
2021/03/28 12:42:34;;;;;;;11.38;3.38;;;12.90;69.70;;;;;;4988096;28;20034;-63
2021/03/28 12:45:06;;;;;;;11.95;3.92;;;12.90;70.10;;;;;;4992750;28;20033;-63
2021/03/28 12:47:33;;;;;;;;;;;12.90;69.70;;;;;;4993480;28;20093;-63
2021/03/28 12:50:21;;;;;;;6.93;2.60;;;12.90;69.60;;;;;;4993788;28;20381;-62
2021/03/28 12:52:50;;;;;;;10.30;3.83;;;12.90;70.10;;;;;;4996788;28;20486;-63
2021/03/28 12:55:19;;;;;;;7.97;2.90;;;12.90;70.10;;;;;;4996440;28;20027;-63
2021/03/28 12:57:53;;;;;;;8.07;2.60;;;12.90;69.80;;;;;;4997080;28;20032;-63
2021/03/28 13:00:45;;;;;;;9.07;3.22;;;12.80;70.00;;;;;;4996968;28;20050;-65
2021/03/28 13:03:23;;;;;;;10.30;3.20;;;12.90;69.80;;;;;;4994932;28;20041;-64
2021/03/28 13:06:18;;;;;;;11.68;2.78;;;13.00;70.30;;;;;;4996703;28;20077;-63
2021/03/28 13:08:46;;;;;;;7.32;2.75;;;12.90;69.80;;;;;;4996959;28;20034;-64
2021/03/28 13:11:12;;;;;;;7.43;2.92;;;13.00;69.60;;;;;;4995928;28;20029;-63
2021/03/28 13:13:44;;;;;;;10.35;2.85;;;13.00;69.60;;;;;;4996586;28;20433;-64
2021/03/28 13:16:26;;;;;;;17.08;3.05;;;13.00;69.90;;;;;;5009680;28;20141;-65
2021/03/28 13:18:53;;;;;;;11.02;3.47;;;13.00;69.80;;;;;;5004637;28;20050;-64
2021/03/28 13:21:32;;;;;;;9.23;2.72;;;13.00;69.90;;;;;;4996188;28;20034;-64
2021/03/28 13:24:16;;;;;;;8.27;3.15;;;12.90;70.90;;;;;;4995217;28;20073;-63
2021/03/28 13:27:09;;;;;;;9.85;2.90;;;12.90;71.70;;;;;;4996420;28;20038;-65
2021/03/28 13:29:40;;;;;;;10.57;4.03;;;12.90;71.40;;;;;;4996689;28;20033;-63
2021/03/28 13:32:22;;;;;;;10.32;2.97;;;12.90;71.60;;;;;;4999523;28;20026;-66
2021/03/28 13:34:50;;;;;;;12.35;2.90;;;12.90;70.80;;;;;;5012285;28;20471;-64
2021/03/28 13:37:30;;;;;;;7.38;2.55;;;12.90;71.10;;;;;;5008602;28;20026;-66
2021/03/28 13:39:56;;;;;;;31.00;5.28;;;13.00;70.30;;;;;;4996095;28;20030;-67
2021/03/28 13:42:27;;;;;;;75.53;13.05;;;13.00;70.40;;;;;;5014661;28;20370;-63
2021/03/28 13:45:07;;;;;;;12.02;4.18;;;13.10;70.40;;;;;;5012706;28;20105;-67
2021/03/28 13:47:59;;;;;;;13.10;3.40;;;13.20;70.50;;;;;;5014672;28;20038;-64
2021/03/28 13:50:38;;;;;;;;;;;13.10;70.10;;;;;;5001990;28;20018;-63
2021/03/28 13:53:23;;;;;;;8.13;2.72;;;13.20;70.00;;;;;;4994844;28;19917;-64
2021/03/28 13:56:02;;;;;;;9.50;2.95;;;13.20;70.20;;;;;;5002530;28;20026;-64
2021/03/28 13:58:31;;;;;;;7.75;3.45;;;13.20;70.10;;;;;;5014364;28;20018;-65
2021/03/28 14:01:19;;;;;;;10.18;3.63;;;13.20;70.60;;;;;;5011545;28;20049;-63
2021/03/28 14:03:47;;;;;;;10.18;3.65;;;13.20;70.90;;;;;;5013179;28;20489;-64
2021/03/28 14:06:24;;;;;;;9.73;2.67;;;13.20;70.00;;;;;;5004124;28;20116;-63
2021/03/28 14:09:05;;;;;;;9.55;3.13;;;13.20;70.60;;;;;;4997037;28;20085;-64
2021/03/28 14:11:53;;;;;;;8.68;3.67;;;13.20;70.20;;;;;;4991028;28;20664;-64
2021/03/28 14:14:27;;;;;;;6.30;2.55;;;13.30;70.70;;;;;;4997775;28;20034;-64
2021/03/28 14:16:55;;;;;;;8.52;3.08;;;13.30;70.70;;;;;;4990539;28;20072;-65
2021/03/28 14:19:32;;;;;;;9.45;3.17;;;13.30;70.90;;;;;;4991131;28;20045;-65
2021/03/28 14:22:29;;;;;;;11.10;3.30;;;13.40;71.40;;;;;;4999555;28;20026;-64
2021/03/28 14:25:00;;;;;;;9.32;2.95;;;13.40;71.20;;;;;;5010361;28;20041;-64
2021/03/28 14:27:28;;;;;;;6.85;3.13;;;13.40;71.50;;;;;;5007563;28;21300;-65
2021/03/28 14:30:16;;;;;;;7.82;3.13;;;13.40;70.70;;;;;;5008929;28;20030;-64
2021/03/28 14:32:47;;;;;;;9.18;3.78;;;13.50;71.00;;;;;;4996895;28;20034;-67
2021/03/28 14:35:48;;;;;;;12.27;3.50;;;13.60;70.40;;;;;;5004586;28;20042;-66
2021/03/28 14:38:40;;;;;;;11.48;3.78;;;13.70;70.30;;;;;;4991406;28;20040;-63
2021/03/28 14:41:23;;;;;;;10.88;4.30;;;13.70;70.20;;;;;;5000915;28;20141;-65
2021/03/28 14:44:18;;;;;;;11.75;3.75;;;14.00;70.30;;;;;;4989646;28;20072;-66
2021/03/28 14:47:03;;;;;;;15.35;4.28;;;14.10;69.10;;;;;;4990556;28;20065;-64
2021/03/28 14:49:49;;;;;;;9.77;4.30;;;14.20;69.20;;;;;;4996907;28;20045;-71
2021/03/28 14:52:52;;;;;;;14.00;4.45;;;14.30;69.20;;;;;;5006701;28;20038;-68
2021/03/28 14:55:42;;;;;;;10.10;4.40;;;14.30;68.10;;;;;;4997998;28;20418;-67
2021/03/28 14:58:26;;;;;;;15.45;4.28;;;14.40;67.30;;;;;;4991684;28;20030;-68
2021/03/28 15:00:58;;;;;;;13.32;5.07;;;14.40;67.60;;;;;;5007434;28;20060;-67
2021/03/28 15:03:48;;;;;;;15.75;5.20;;;14.50;67.50;;;;;;5009167;28;20034;-63
2021/03/28 15:06:46;;;;;;;15.13;4.68;;;14.40;67.60;;;;;;5009165;28;20506;-64
2021/03/28 15:09:37;;;;;;;20.52;8.73;;;14.40;67.80;;;;;;5004945;28;20048;-66
2021/03/28 15:12:31;;;;;;;13.40;6.13;;;14.30;68.60;;;;;;4988749;28;20603;-66
2021/03/28 15:15:05;;;;;;;16.23;6.80;;;14.40;68.70;;;;;;4991479;28;20041;-63
2021/03/28 15:17:41;;;;;;;14.45;6.55;;;14.40;67.90;;;;;;4988626;28;20364;-65
2021/03/28 15:20:34;;;;;;;18.10;8.82;;;14.40;68.00;;;;;;4990015;28;20053;-64
2021/03/28 15:23:23;;;;;;;15.68;6.65;;;14.40;68.50;;;;;;5005313;28;20568;-64
2021/03/28 15:26:01;;;;;;;13.90;6.55;;;14.40;67.80;;;;;;5003161;28;20463;-64
2021/03/28 15:28:30;;;;;;;15.52;6.45;;;14.40;67.80;;;;;;4990038;28;20045;-65
2021/03/28 15:31:09;;;;;;;12.27;5.32;;;14.40;68.00;;;;;;4989170;28;20018;-64
2021/03/28 15:33:59;;;;;;;12.38;4.90;;;14.40;67.90;;;;;;4990082;28;20101;-66
2021/03/28 15:36:46;;;;;;;14.30;5.28;;;14.50;67.50;;;;;;4990263;28;20077;-64
2021/03/28 15:39:17;;;;;;;11.45;5.55;;;14.40;67.40;;;;;;4998833;28;20034;-63
2021/03/28 15:41:49;;;;;;;10.82;4.97;;;14.30;67.80;;;;;;5009136;28;20030;-66
2021/03/28 15:44:32;;;;;;;14.77;6.63;;;14.30;68.10;;;;;;4995456;28;20165;-66
2021/03/28 15:47:41;;;;;;;12.40;5.93;;;14.20;68.40;;;;;;4996935;28;20774;-63
2021/03/28 15:50:19;;;;;;;12.02;5.53;;;14.20;68.50;;;;;;5008692;28;20046;-64
2021/03/28 15:52:44;;;;;;;13.55;5.68;;;14.10;69.10;;;;;;5002333;28;20092;-64
2021/03/28 15:55:31;;;;;;;11.57;5.47;;;14.10;68.90;;;;;;4989236;28;20030;-64
2021/03/28 15:58:30;;;;;;;14.55;6.05;;;14.10;69.00;;;;;;4987515;28;20077;-64
2021/03/28 16:01:20;;;;;;;12.82;5.53;;;14.20;69.30;;;;;;4987726;28;20486;-65
2021/03/28 16:04:25;;;;;;;15.63;5.82;;;14.20;69.20;;;;;;4989488;28;20536;-65
2021/03/28 16:07:28;;;;;;;11.55;4.85;;;14.20;69.10;;;;;;4993014;28;20036;-65
2021/03/28 16:10:02;;;;;;;8.68;4.03;;;14.20;69.30;;;;;;4989391;28;20073;-65
2021/03/28 16:12:47;;;;;;;9.40;4.10;;;14.10;69.10;;;;;;4988171;28;20478;-65
2021/03/28 16:15:29;;;;;;;12.13;4.18;;;14.10;69.80;;;;;;4989124;28;20022;-65
2021/03/28 16:18:43;;;;;;;9.82;4.20;;;14.10;69.40;;;;;;4989076;28;20026;-65
2021/03/28 16:21:14;;;;;;;8.30;3.83;;;14.10;69.10;;;;;;4999263;28;20037;-65
2021/03/28 16:24:03;;;;;;;10.65;3.97;;;14.10;69.80;;;;;;5024735;28;20493;-66
2021/03/28 16:26:51;;;;;;;10.27;3.53;;;14.00;70.00;;;;;;4993818;28;20049;-65
2021/03/28 16:29:39;;;;;;;12.05;3.78;;;14.00;69.70;;;;;;5006102;28;20038;-66
2021/03/28 16:32:14;;;;;;;13.50;4.70;;;14.00;69.90;;;;;;5007939;28;20022;-64
2021/03/28 16:34:57;;;;;;;15.23;4.63;;;13.90;70.20;;;;;;5008347;28;20088;-66
2021/03/28 16:37:43;;;;;;;13.23;4.22;;;13.90;70.20;;;;;;5007042;28;20037;-65
2021/03/28 16:40:19;;;;;;;14.48;4.85;;;13.90;70.40;;;;;;5004157;28;20062;-65
2021/03/28 16:42:51;;;;;;;15.85;4.78;;;13.90;71.20;;;;;;4987644;28;20026;-66
2021/03/28 16:45:26;;;;;;;12.43;4.63;;;13.80;71.30;;;;;;4991206;28;20037;-65
2021/03/28 16:47:51;;;;;;;9.98;3.90;;;13.80;71.20;;;;;;4997880;28;20091;-66
2021/03/28 16:50:20;;;;;;;10.05;4.22;;;13.80;71.30;;;;;;5006435;28;20057;-66
2021/03/28 16:52:51;;;;;;;12.75;5.30;;;13.80;71.70;;;;;;5000252;28;20121;-64
2021/03/28 16:55:19;;;;;;;11.32;5.20;;;13.80;71.70;;;;;;5003616;28;20030;-65
2021/03/28 16:57:57;;;;;;;11.60;5.10;;;13.80;71.60;;;;;;5001390;28;20030;-65
2021/03/28 17:00:26;;;;;;;13.27;5.55;;;13.80;71.70;;;;;;5004304;28;20076;-65
2021/03/28 17:02:52;;;;;;;11.90;4.70;;;13.70;71.80;;;;;;4987759;28;20033;-65
2021/03/28 17:05:25;;;;;;;10.40;4.25;;;13.70;72.00;;;;;;4988744;28;20032;-65
2021/03/28 17:07:56;;;;;;;13.27;4.80;;;13.70;72.00;;;;;;5007275;28;20171;-66
2021/03/28 17:10:38;;;;;;;11.80;5.03;;;13.70;72.30;;;;;;4993307;28;20113;-68
2021/03/28 17:13:29;;;;;;;10.98;4.05;;;13.70;72.50;;;;;;4987325;28;20112;-68
2021/03/28 17:16:18;;;;;;;10.38;3.70;;;13.60;72.60;;;;;;4979207;28;20030;-68
2021/03/28 17:18:49;;;;;;;9.82;4.53;;;13.60;72.50;;;;;;5007710;28;20109;-65
2021/03/28 17:21:38;;;;;;;11.43;4.15;;;13.60;73.10;;;;;;5006068;28;20110;-66
2021/03/28 17:24:39;;;;;;;14.50;5.13;;;13.50;73.00;;;;;;5006159;28;20038;-66
2021/03/28 17:27:14;;;;;;;15.55;5.00;;;13.50;73.10;;;;;;4994068;28;20061;-65
2021/03/28 17:29:39;;;;;;;12.50;4.50;;;13.50;73.10;;;;;;4988092;28;20030;-66
2021/03/28 17:32:24;;;;;;;11.02;4.15;;;13.50;73.50;;;;;;4987440;28;20385;-66
2021/03/28 17:35:16;;;;;;;13.80;4.25;;;13.50;74.00;;;;;;4990223;28;20741;-69
2021/03/28 17:37:43;;;;;;;;;;;13.40;73.90;;;;;;5004379;28;20026;-67
2021/03/28 17:40:26;;;;;;;17.60;6.13;;;13.40;74.00;;;;;;5010985;28;20388;-67
2021/03/28 17:42:53;;;;;;;18.98;9.75;;;13.30;73.80;;;;;;5010408;28;20037;-67
2021/03/28 17:45:31;;;;;;;17.85;5.40;;;13.30;74.30;;;;;;5009529;28;20040;-64
2021/03/28 17:48:04;;;;;;;13.77;4.65;;;13.20;74.10;;;;;;5011182;28;20032;-63
2021/03/28 17:50:35;;;;;;;11.65;4.88;;;13.20;74.60;;;;;;5009093;28;20022;-65
2021/03/28 17:53:33;;;;;;;;;;;13.20;74.40;;;;;;5011129;28;20141;-65
2021/03/28 17:56:01;;;;;;;13.27;5.20;;;13.20;74.40;;;;;;5007406;28;20000;-66
2021/03/28 17:58:43;;;;;;;17.50;7.93;;;13.20;74.60;;;;;;5005046;28;20084;-65
2021/03/28 18:01:33;;;;;;;13.52;5.05;;;13.10;74.80;;;;;;5006550;28;20512;-64
2021/03/28 18:04:08;;;;;;;13.90;4.15;;;13.10;74.60;;;;;;4991771;28;20049;-65
2021/03/28 18:06:37;;;;;;;11.98;3.90;;;13.10;74.80;;;;;;4991082;28;20019;-65
2021/03/28 18:09:20;;;;;;;7.88;3.25;;;13.10;75.00;;;;;;4991613;28;20037;-64
2021/03/28 18:11:51;;;;;;;11.95;4.47;;;13.00;75.10;;;;;;4994284;28;20126;-64
2021/03/28 18:14:23;;;;;;;12.90;4.50;;;13.00;75.00;;;;;;4991502;28;20034;-66
2021/03/28 18:16:50;;;;;;;11.80;4.63;;;13.00;75.10;;;;;;4990992;28;20296;-64
2021/03/28 18:19:17;;;;;;;13.23;3.95;;;12.90;75.20;;;;;;4989497;28;20018;-64
2021/03/28 18:21:46;;;;;;;15.13;3.60;;;12.90;75.60;;;;;;4990610;28;20129;-66
2021/03/28 18:24:34;;;;;;;8.13;3.35;;;12.90;75.50;;;;;;4991389;28;20386;-65
2021/03/28 18:27:15;;;;;;;11.35;3.75;;;12.90;75.70;;;;;;5004519;28;20510;-64
2021/03/28 18:32:40;;;;;;;8.88;3.45;;;12.90;75.90;;;;;;4990980;28;20053;-66
2021/03/28 18:35:19;;;;;;;10.98;4.18;;;12.80;75.80;;;;;;5010373;28;20514;-66
2021/03/28 18:37:47;;;;;;;12.73;4.03;;;12.80;76.00;;;;;;4989484;28;20114;-64
2021/03/28 18:40:53;;;;;;;8.10;2.70;;;12.80;76.30;;;;;;4990710;28;20019;-66
2021/03/28 18:43:27;;;;;;;10.52;4.22;;;12.80;76.30;;;;;;4993889;28;20038;-67
2021/03/28 18:45:58;;;;;;;12.75;3.47;;;12.80;76.30;;;;;;5010100;28;20145;-63
2021/03/28 18:48:33;;;;;;;8.77;2.75;;;12.80;76.30;;;;;;5006565;28;20394;-65
2021/03/28 18:51:02;;;;;;;11.32;3.15;;;12.80;76.60;;;;;;5010007;28;20143;-64
2021/03/28 18:53:32;;;;;;;12.88;3.17;;;12.80;76.50;;;;;;5010565;28;20107;-64
2021/03/28 18:56:18;;;;;;;10.93;3.10;;;12.80;76.90;;;;;;5009711;28;20021;-66
2021/03/28 18:59:03;;;;;;;13.77;3.67;;;12.80;76.90;;;;;;5008695;28;20037;-66
2021/03/28 19:01:34;;;;;;;12.88;5.18;;;12.70;77.50;;;;;;5009080;28;20049;-66
2021/03/28 19:04:31;;;;;;;12.05;3.83;;;12.70;77.00;;;;;;5010558;28;20647;-67
2021/03/28 19:07:14;;;;;;;13.70;4.00;;;12.70;77.00;;;;;;4994824;28;20030;-67
2021/03/28 19:09:41;;;;;;;10.77;4.25;;;12.60;77.30;;;;;;5000675;28;20454;-66
2021/03/28 19:12:33;;;;;;;10.93;3.90;;;12.60;77.50;;;;;;4990907;28;20026;-66
2021/03/28 19:15:25;;;;;;;11.35;4.18;;;12.60;77.50;;;;;;5009013;28;20029;-66
2021/03/28 19:17:56;;;;;;;14.30;5.70;;;12.60;77.60;;;;;;4996221;28;20030;-65
2021/03/28 19:20:33;;;;;;;13.15;4.40;;;12.50;77.80;;;;;;4991099;28;20062;-63
2021/03/28 19:23:02;;;;;;;15.30;4.00;;;12.40;78.00;;;;;;4990000;28;20053;-64
2021/03/28 19:25:33;;;;;;;21.23;10.48;;;12.40;78.10;;;;;;4990161;28;20026;-65
2021/03/28 19:28:21;;;;;;;21.33;10.40;;;12.30;78.50;;;;;;4995786;28;20030;-65
2021/03/28 19:30:47;;;;;;;12.43;4.90;;;12.20;78.90;;;;;;4988750;28;20054;-65
2021/03/28 19:33:36;;;;;;;10.48;3.65;;;12.10;79.10;;;;;;4990715;28;20030;-65
2021/03/28 19:36:06;;;;;;;12.27;4.43;;;12.00;79.00;;;;;;4990694;28;20042;-64
2021/03/28 19:38:42;;;;;;;13.05;5.03;;;12.00;79.20;;;;;;4991393;28;20049;-67
2021/03/28 19:41:14;;;;;;;11.75;3.90;;;11.90;79.50;;;;;;4990519;28;20390;-65
2021/03/28 19:43:50;;;;;;;11.15;4.63;;;11.90;79.90;;;;;;4990080;28;20390;-64
2021/03/28 19:49:00;;;;;;;11.57;4.68;;;11.90;80.30;;;;;;4990957;28;20046;-65
2021/03/28 19:51:45;;;;;;;8.60;2.85;;;11.80;80.30;;;;;;4989652;28;20026;-65
2021/03/28 19:54:11;;;;;;;10.57;3.83;;;11.80;80.20;;;;;;4997333;28;20033;-65
2021/03/28 19:56:43;;;;;;;9.60;3.45;;;11.70;80.30;;;;;;5009952;28;20037;-65
2021/03/28 19:59:12;;;;;;;10.55;3.40;;;11.70;80.30;;;;;;5008707;28;20379;-66
2021/03/28 20:01:44;;;;;;;12.05;3.67;;;11.70;80.90;;;;;;5009295;28;20049;-65
2021/03/28 20:04:15;;;;;;;13.25;7.78;;;11.60;81.00;;;;;;5008961;28;20747;-64
2021/03/28 20:06:41;;;;;;;9.88;4.32;;;11.60;81.10;;;;;;5008035;28;20083;-68
2021/03/28 20:09:19;;;;;;;11.55;5.15;;;11.50;81.00;;;;;;5009437;28;20117;-66
2021/03/28 20:11:50;;;;;;;12.27;4.10;;;11.50;81.30;;;;;;5001103;28;20630;-67
2021/03/28 20:14:18;;;;;;;13.47;4.53;;;11.40;81.30;;;;;;4989824;28;20117;-65
2021/03/28 20:16:50;;;;;;;9.98;4.40;;;11.40;81.40;;;;;;4990952;28;20057;-67
2021/03/28 20:19:18;;;;;;;30.73;15.10;;;11.40;81.50;;;;;;4989614;28;20665;-66
2021/03/28 20:21:47;;;;;;;22.60;9.20;;;11.30;81.60;;;;;;4989983;28;20433;-67
2021/03/28 20:24:23;;;;;;;17.15;6.03;;;11.30;81.80;;;;;;4989790;28;20510;-65
2021/03/28 20:27:13;;;;;;;13.98;6.00;;;11.30;81.80;;;;;;4987715;28;20035;-64
2021/03/28 20:29:52;;;;;;;14.35;6.28;;;11.20;82.30;;;;;;4989835;28;20023;-66
2021/03/28 20:32:20;;;;;;;13.57;5.22;;;11.20;81.80;;;;;;4987890;28;20034;-66
2021/03/28 20:34:58;;;;;;;14.10;4.90;;;11.20;82.10;;;;;;4992337;28;20025;-63
2021/03/28 20:37:43;;;;;;;10.52;5.63;;;11.20;82.40;;;;;;4989596;28;20062;-66
2021/03/28 20:40:17;;;;;;;11.13;4.10;;;11.20;82.30;;;;;;4992334;28;20189;-66
2021/03/28 20:42:54;;;;;;;8.82;4.25;;;11.10;82.50;;;;;;5009403;28;20034;-66
2021/03/28 20:45:30;;;;;;;10.07;3.53;;;11.10;82.60;;;;;;5009322;28;20037;-66
2021/03/28 20:47:57;;;;;;;10.18;3.70;;;11.10;83.00;;;;;;5008101;28;20033;-67
2021/03/28 20:50:23;;;;;;;8.93;3.63;;;11.10;82.80;;;;;;5006986;28;20022;-65
2021/03/28 20:52:54;;;;;;;6.93;3.60;;;11.00;83.00;;;;;;5009068;28;20054;-65
2021/03/28 20:55:22;;;;;;;13.75;5.38;;;11.00;83.30;;;;;;5008715;28;20390;-65
2021/03/28 20:57:56;;;;;;;8.15;3.60;;;11.00;83.40;;;;;;5008863;28;20437;-64
2021/03/28 21:00:27;;;;;;;9.45;3.60;;;11.00;83.30;;;;;;5006859;28;20052;-64
2021/03/28 21:02:56;;;;;;;12.75;4.68;;;11.00;83.30;;;;;;5008017;28;20033;-65
2021/03/28 21:05:24;;;;;;;15.05;4.88;;;11.00;83.20;;;;;;4989292;28;20023;-64
2021/03/28 21:08:05;;;;;;;39.85;23.83;;;11.00;83.00;;;;;;4988449;28;20454;-65
2021/03/28 21:10:33;;;;;;;61.40;34.83;;;11.00;83.10;;;;;;4988999;28;20113;-65
2021/03/28 21:13:01;;;;;;;43.78;22.77;;;10.90;83.20;;;;;;4992680;28;20022;-64
2021/03/28 21:15:27;;;;;;;20.65;11.30;;;11.00;83.40;;;;;;4993835;28;20478;-66
2021/03/28 21:17:54;;;;;;;15.13;7.05;;;10.90;83.30;;;;;;4991878;28;20034;-63
2021/03/28 21:20:21;;;;;;;11.27;6.18;;;10.90;83.20;;;;;;4995073;28;20485;-63
2021/03/28 21:22:47;;;;;;;10.20;4.38;;;10.90;83.30;;;;;;4993328;28;20560;-62
2021/03/28 21:25:15;;;;;;;10.15;3.70;;;10.90;83.20;;;;;;5012089;28;20034;-63
2021/03/28 21:27:47;;;;;;;8.43;3.85;;;10.90;83.00;;;;;;5012643;28;20038;-64
2021/03/28 21:30:14;;;;;;;21.02;9.40;;;10.90;83.10;;;;;;5011616;28;20121;-64
2021/03/28 21:32:42;;;;;;;12.38;4.90;;;10.90;83.10;;;;;;5003407;28;20030;-64
2021/03/28 21:35:13;;;;;;;12.32;4.60;;;10.90;83.10;;;;;;5007162;28;20383;-64
2021/03/28 21:37:40;;;;;;;11.20;3.80;;;10.90;83.10;;;;;;5015375;28;20072;-65
2021/03/28 21:40:17;;;;;;;16.30;5.00;;;10.90;83.10;;;;;;5008375;28;20033;-64
2021/03/28 21:42:44;;;;;;;11.32;5.00;;;10.90;83.20;;;;;;4999385;28;20092;-64
2021/03/28 21:45:10;;;;;;;12.18;5.30;;;10.80;83.50;;;;;;5011936;28;20056;-64
2021/03/28 21:47:37;;;;;;;12.68;4.95;;;10.80;83.70;;;;;;5011117;28;20029;-64
2021/03/28 21:50:09;;;;;;;11.15;4.72;;;10.70;84.30;;;;;;5000734;28;20025;-64
2021/03/28 21:52:45;;;;;;;13.07;4.75;;;10.70;83.70;;;;;;4998505;28;20021;-64
2021/03/28 21:55:21;;;;;;;14.70;5.30;;;10.70;84.00;;;;;;5007982;28;20113;-63
2021/03/28 21:57:47;;;;;;;11.63;4.65;;;10.60;84.10;;;;;;5013147;28;20036;-64
2021/03/28 22:00:20;;;;;;;10.77;4.43;;;10.70;84.10;;;;;;5013286;28;20049;-64
2021/03/28 22:02:46;;;;;;;11.30;4.28;;;10.60;84.30;;;;;;5014947;28;20029;-63
2021/03/28 22:05:13;;;;;;;10.35;4.63;;;10.60;84.30;;;;;;5009858;28;20026;-62
2021/03/28 22:07:39;;;;;;;8.93;4.20;;;10.60;84.40;;;;;;4999968;28;20108;-63
2021/03/28 22:10:13;;;;;;;10.65;5.60;;;10.60;84.50;;;;;;4997449;28;20478;-63
2021/03/28 22:12:39;;;;;;;13.77;5.88;;;10.50;84.50;;;;;;5014668;28;20418;-63
2021/03/28 22:15:23;;;;;;;11.13;5.20;;;10.50;84.70;;;;;;5013644;28;20024;-63
2021/03/28 22:17:49;;;;;;;9.98;4.03;;;10.50;84.70;;;;;;5014214;28;20037;-63
2021/03/28 22:20:18;;;;;;;17.02;6.30;;;10.50;84.70;;;;;;5019006;28;20049;-63
2021/03/28 22:22:44;;;;;;;10.95;4.40;;;10.40;84.70;;;;;;5032112;28;20021;-64
2021/03/28 22:25:15;;;;;;;11.38;3.83;;;10.40;84.70;;;;;;5032551;28;20025;-64
2021/03/28 22:27:41;;;;;;;12.77;5.33;;;10.30;84.80;;;;;;5033526;28;20112;-63
2021/03/28 22:30:17;;;;;;;15.50;6.07;;;10.30;85.00;;;;;;5034068;28;20113;-64
2021/03/28 22:32:44;;;;;;;11.85;6.75;;;10.30;85.40;;;;;;5034099;28;20378;-64
2021/03/28 22:35:18;;;;;;;12.32;5.85;;;10.20;85.50;;;;;;5034614;28;20104;-64
2021/03/28 22:37:48;;;;;;;13.45;5.43;;;10.10;85.80;;;;;;5034698;28;20064;-64
2021/03/28 22:40:27;;;;;;;12.82;5.53;;;10.10;86.00;;;;;;5033843;28;20021;-63
2021/03/28 22:42:54;;;;;;;10.80;4.88;;;10.10;86.00;;;;;;5032782;28;20025;-63
2021/03/28 22:45:21;;;;;;;9.88;4.63;;;10.00;86.00;;;;;;5034516;28;20040;-64
2021/03/28 22:47:52;;;;;;;8.93;4.13;;;10.00;86.10;;;;;;5033594;28;20119;-64
2021/03/28 22:50:19;;;;;;;10.52;4.75;;;10.00;86.20;;;;;;5033242;28;20021;-63
2021/03/28 22:52:46;;;;;;;13.68;5.35;;;9.90;86.30;;;;;;5032914;28;20021;-64
2021/03/28 22:55:13;;;;;;;13.73;5.85;;;9.90;86.50;;;;;;5033863;28;20028;-66
2021/03/28 22:57:40;;;;;;;13.18;6.03;;;9.90;86.60;;;;;;5034228;28;20026;-64
2021/03/28 23:00:15;;;;;;;17.60;9.45;;;9.80;86.70;;;;;;5032975;28;20494;-63
2021/03/28 23:02:41;;;;;;;19.98;12.23;;;9.80;87.00;;;;;;5034223;28;20025;-64
2021/03/28 23:05:08;;;;;;;28.08;15.75;;;9.80;87.10;;;;;;5032378;28;20113;-64
2021/03/28 23:07:34;;;;;;;27.25;15.77;;;9.70;87.10;;;;;;5033521;28;20029;-64
2021/03/28 23:10:00;;;;;;;25.75;15.70;;;9.70;87.80;;;;;;5033613;28;20075;-64
2021/03/28 23:12:28;;;;;;;40.08;22.73;;;9.70;87.10;;;;;;5034231;28;20389;-64
2021/03/28 23:14:59;;;;;;;31.60;16.27;;;9.70;87.10;;;;;;5032834;28;20036;-65
2021/03/28 23:17:26;;;;;;;22.90;12.70;;;9.80;87.20;;;;;;5011321;28;20026;-64
2021/03/28 23:19:54;;;;;;;16.65;7.22;;;9.70;87.10;;;;;;4994171;28;20037;-65
2021/03/28 23:22:20;;;;;;;10.57;5.85;;;9.60;87.00;;;;;;5001430;28;20026;-65
2021/03/28 23:24:47;;;;;;;11.95;5.05;;;9.60;87.20;;;;;;5012522;28;20048;-63
2021/03/28 23:27:13;;;;;;;9.13;4.95;;;9.70;87.20;;;;;;4994158;28;20084;-65
2021/03/28 23:29:39;;;;;;;9.15;5.45;;;9.60;87.20;;;;;;4993685;28;20034;-64
2021/03/28 23:32:08;;;;;;;10.98;4.65;;;9.60;87.20;;;;;;5026944;28;20029;-65
2021/03/28 23:34:35;;;;;;;8.77;4.28;;;9.60;87.30;;;;;;5025096;28;20061;-64
2021/03/28 23:37:02;;;;;;;11.93;4.85;;;9.60;87.50;;;;;;5012420;28;20105;-66
2021/03/28 23:39:27;;;;;;;13.77;5.55;;;9.60;87.50;;;;;;5013529;28;20033;-63